Time;durP1;ratioP1;P1;durP2;ratioP2;P2;SDS_P1;SDS_P2;PMS_P1;PMS_P2;Temp;Humidity;BMP_temperature;BMP_pressure;BME280_temperature;BME280_humidity;BME280_pressure;Samples;Min_cycle;Max_cycle;Signal;HPM_P1;HPM_P2
2021/04/07 00:02:17;;;;;;;19.92;12.50;;;;;;;7.00;86.34;95860.31;5069770;28;20493;-82
2021/04/07 00:05:17;;;;;;;24.52;14.20;;;;;;;7.08;86.35;95872.06;5081308;28;20024;-82
2021/04/07 00:07:48;;;;;;;22.83;12.98;;;;;;;7.14;85.92;95857.44;5055729;28;20127;-82
2021/04/07 00:10:15;;;;;;;24.35;13.68;;;;;;;7.16;86.31;95849.38;5074739;28;20038;-82
2021/04/07 00:12:41;;;;;;;26.30;14.07;;;;;;;7.00;86.09;95847.88;5074077;28;20492;-82
2021/04/07 00:15:18;;;;;;;25.70;14.02;;;;;;;7.12;86.89;95861.19;5073823;28;20483;-83
2021/04/07 00:17:44;;;;;;;22.35;13.35;;;;;;;7.14;85.76;95843.34;5073463;28;20056;-82
2021/04/07 00:20:14;;;;;;;25.10;14.10;;;;;;;7.24;85.68;95860.25;5073820;28;20125;-82
2021/04/07 00:22:40;;;;;;;23.33;13.38;;;;;;;7.21;85.75;95871.97;5074075;28;20109;-81
2021/04/07 00:25:06;;;;;;;31.02;14.10;;;;;;;7.23;85.22;95870.03;5073618;28;20480;-82
2021/04/07 00:27:32;;;;;;;20.67;12.43;;;;;;;7.16;84.89;95883.94;5073541;28;20099;-82
2021/04/07 00:29:58;;;;;;;27.85;11.13;;;;;;;7.07;84.96;95874.84;5073749;28;20028;-82
2021/04/07 00:32:24;;;;;;;21.77;11.32;;;;;;;7.03;85.87;95863.59;5073494;28;20096;-83
2021/04/07 00:34:50;;;;;;;18.52;10.65;;;;;;;7.05;85.17;95882.06;5073120;28;20024;-83
2021/04/07 00:37:15;;;;;;;16.63;10.38;;;;;;;7.08;85.19;95893.31;5073046;28;20024;-83
2021/04/07 00:39:41;;;;;;;23.08;11.68;;;;;;;7.02;85.51;95888.47;5073582;28;20059;-82
2021/04/07 00:42:08;;;;;;;19.83;10.43;;;;;;;6.98;85.93;95886.97;5073755;28;20089;-82
2021/04/07 00:44:34;;;;;;;16.70;10.15;;;;;;;7.08;86.33;95890.66;5073511;28;20039;-83
2021/04/07 00:46:59;;;;;;;17.38;9.85;;;;;;;7.05;85.48;95877.59;5073489;28;20016;-83
2021/04/07 00:49:25;;;;;;;23.08;11.02;;;;;;;7.06;86.01;95899.72;5073323;28;20040;-83
2021/04/07 00:51:52;;;;;;;27.52;11.68;;;;;;;7.11;86.06;95913.50;5073088;28;20441;-82
2021/04/07 00:54:21;;;;;;;19.67;10.05;;;;;;;7.08;86.47;95914.59;5073177;28;20071;-83
2021/04/07 00:56:49;;;;;;;17.75;9.43;;;;;;;7.03;85.64;95900.81;5073129;28;20495;-77
2021/04/07 00:59:17;;;;;;;18.98;10.35;;;;;;;6.99;86.24;95894.00;5073120;28;20027;-83
2021/04/07 01:01:43;;;;;;;18.50;10.00;;;;;;;7.00;85.58;95873.59;5073267;28;20108;-84
2021/04/07 01:04:09;;;;;;;15.40;10.15;;;;;;;7.01;86.34;95878.78;5072944;28;20028;-84
2021/04/07 01:06:36;;;;;;;18.27;10.35;;;;;;;7.05;85.99;95893.53;5073324;28;20020;-84
2021/04/07 01:09:03;;;;;;;18.70;10.18;;;;;;;7.02;86.94;95876.97;5073414;28;20170;-83
2021/04/07 01:11:28;;;;;;;18.48;11.05;;;;;;;7.09;86.32;95892.38;5073180;28;20032;-84
2021/04/07 01:13:54;;;;;;;17.77;10.50;;;;;;;7.03;86.01;95890.16;5073652;28;20506;-84
2021/04/07 01:16:20;;;;;;;19.13;10.25;;;;;;;6.96;84.78;95891.56;5073312;28;20031;-84
2021/04/07 01:18:46;;;;;;;23.00;9.90;;;;;;;6.98;83.83;95896.78;5073454;28;20547;-84
2021/04/07 01:21:11;;;;;;;18.17;9.82;;;;;;;6.95;83.85;95897.84;5073163;28;20573;-84
2021/04/07 01:23:37;;;;;;;16.60;10.43;;;;;;;6.85;84.19;95875.59;5090231;28;20112;-84
2021/04/07 01:26:03;;;;;;;15.25;10.02;;;;;;;6.78;83.07;95881.47;5090198;28;20024;-83
2021/04/07 01:28:29;;;;;;;22.83;9.80;;;;;;;6.59;83.30;95875.78;5089975;28;20061;-84
2021/04/07 01:30:54;;;;;;;20.10;9.63;;;;;;;6.60;83.77;95864.22;5089973;28;20467;-83
2021/04/07 01:33:24;;;;;;;17.48;10.23;;;;;;;6.52;83.71;95867.44;5073186;28;20066;-84
2021/04/07 01:35:51;;;;;;;17.58;9.93;;;;;;;6.60;85.12;95891.63;5072664;28;20029;-84
2021/04/07 01:38:18;;;;;;;22.98;11.35;;;;;;;6.69;84.21;95920.19;5073177;28;20411;-84
2021/04/07 01:40:44;;;;;;;20.38;10.40;;;;;;;6.46;83.99;95891.78;5072878;28;20031;-84
2021/04/07 01:43:10;;;;;;;21.17;11.10;;;;;;;6.59;85.43;95899.69;5073097;28;20032;-84
2021/04/07 01:45:37;;;;;;;18.10;10.27;;;;;;;6.55;84.49;95888.47;5072684;28;20032;-84
2021/04/07 01:48:04;;;;;;;20.13;10.63;;;;;;;6.37;84.67;95868.53;5073125;28;20023;-84
2021/04/07 01:50:30;;;;;;;19.92;10.27;;;;;;;6.52;84.67;95894.00;5072275;28;20122;-84
2021/04/07 01:52:55;;;;;;;21.65;10.95;;;;;;;6.53;84.96;95888.56;5089442;28;20112;-84
2021/04/07 01:55:22;;;;;;;25.08;10.98;;;;;;;6.54;85.86;95890.28;5073035;28;20043;-84
2021/04/07 01:57:48;;;;;;;20.08;10.57;;;;;;;6.60;85.16;95899.59;5071958;28;20507;-84
2021/04/07 02:00:15;;;;;;;20.88;11.00;;;;;;;6.47;84.52;95885.50;5072369;28;20056;-84
2021/04/07 02:02:41;;;;;;;21.67;10.57;;;;;;;6.49;83.96;95902.19;5072634;28;20097;-84
2021/04/07 02:05:08;;;;;;;25.60;11.45;;;;;;;6.50;84.32;95909.19;5075620;28;20024;-84
2021/04/07 02:07:33;;;;;;;39.97;12.20;;;;;;;6.30;84.17;95912.44;5076081;28;20020;-84
2021/04/07 02:10:00;;;;;;;22.95;12.52;;;;;;;6.38;84.65;95923.34;5076082;28;20035;-84
2021/04/07 02:12:26;;;;;;;17.13;11.00;;;;;;;6.29;85.46;95924.00;5093068;28;20062;-84
2021/04/07 02:14:52;;;;;;;26.88;12.32;;;;;;;6.30;85.47;95938.97;5075874;28;20183;-84
2021/04/07 02:17:18;;;;;;;28.95;12.73;;;;;;;6.13;85.27;95934.00;5076265;28;20559;-84
2021/04/07 02:19:43;;;;;;;18.48;10.93;;;;;;;6.17;84.51;95949.59;5076923;28;20060;-85
2021/04/07 02:22:18;;;;;;;19.50;11.82;;;;;;;6.09;84.26;95943.16;5076974;28;20115;-84
2021/04/07 02:24:47;;;;;;;21.88;11.88;;;;;;;6.13;84.35;95945.47;5075859;28;20131;-84
2021/04/07 02:27:18;;;;;;;24.98;11.25;;;;;;;5.99;83.92;95909.28;5076060;28;20469;-84
2021/04/07 02:29:46;;;;;;;27.73;11.60;;;;;;;6.14;83.56;95927.75;5092902;28;20028;-84
2021/04/07 02:32:12;;;;;;;22.55;11.20;;;;;;;5.80;83.75;95953.09;5076206;28;20035;-84
2021/04/07 02:34:38;;;;;;;31.05;11.98;;;;;;;5.75;84.54;95963.16;5076037;28;20032;-84
2021/04/07 02:37:04;;;;;;;20.92;11.15;;;;;;;5.70;83.27;95947.56;5075892;28;20521;-83
2021/04/07 02:39:30;;;;;;;25.80;12.50;;;;;;;5.63;83.51;95962.19;5075696;28;20027;-84
2021/04/07 02:41:56;;;;;;;28.73;12.95;;;;;;;5.51;84.31;95956.88;5091985;28;20027;-83
2021/04/07 02:44:21;;;;;;;28.50;13.23;;;;;;;5.56;83.93;95970.66;5075805;28;20035;-84
2021/04/07 02:46:47;;;;;;;25.60;12.35;;;;;;;5.56;83.88;95971.53;5075349;28;20024;-84
2021/04/07 02:49:13;;;;;;;22.70;13.15;;;;;;;5.65;82.93;95994.78;5092459;28;20111;-84
2021/04/07 02:51:38;;;;;;;25.73;13.18;;;;;;;5.58;83.47;96006.72;5075790;28;20055;-85
2021/04/07 02:54:04;;;;;;;24.30;13.60;;;;;;;5.52;83.72;96012.44;5076144;28;20028;-84
2021/04/07 02:56:30;;;;;;;22.52;12.77;;;;;;;5.63;83.23;96004.63;5091692;28;20128;-84
2021/04/07 02:58:59;;;;;;;25.77;13.77;;;;;;;5.63;82.48;96004.63;5072868;28;20039;-84
2021/04/07 03:01:26;;;;;;;19.95;11.77;;;;;;;5.39;82.50;95967.34;5075498;28;20129;-84
2021/04/07 03:03:51;;;;;;;24.65;13.25;;;;;;;5.51;82.99;95968.31;5071801;28;20543;-84
2021/04/07 03:06:17;;;;;;;25.20;13.25;;;;;;;5.48;83.03;95979.13;5075329;28;20062;-84
2021/04/07 03:08:43;;;;;;;25.67;13.73;;;;;;;5.61;83.17;96000.38;5075361;28;20027;-84
2021/04/07 03:11:08;;;;;;;24.40;15.10;;;;;;;5.48;82.92;95995.88;5092080;28;20032;-84
2021/04/07 03:13:34;;;;;;;27.85;14.30;;;;;;;5.30;82.77;95988.31;5075401;28;20036;-84
2021/04/07 03:15:59;;;;;;;26.95;13.52;;;;;;;5.17;83.90;96016.59;5074857;28;20064;-83
2021/04/07 03:18:25;;;;;;;27.05;14.35;;;;;;;5.23;84.38;96016.19;5071717;28;20488;-83
2021/04/07 03:20:50;;;;;;;26.42;14.40;;;;;;;5.10;84.76;96012.63;5089374;28;20110;-84
2021/04/07 03:23:16;;;;;;;28.33;14.52;;;;;;;5.00;85.24;96027.41;5075177;28;20462;-83
2021/04/07 03:25:42;;;;;;;27.70;14.40;;;;;;;5.01;85.28;96032.63;5075117;28;20031;-84
2021/04/07 03:28:08;;;;;;;34.50;14.48;;;;;;;5.18;84.54;96039.47;5074710;28;20501;-83
2021/04/07 03:30:54;;;;;;;26.65;14.18;;;;;;;5.13;83.51;96049.53;5074643;28;20403;-83
2021/04/07 03:33:30;;;;;;;26.73;14.40;;;;;;;5.01;84.71;96085.63;5091291;28;20174;-83
2021/04/07 03:35:57;;;;;;;26.48;14.55;;;;;;;4.93;84.98;96096.69;5090052;28;20024;-84
2021/04/07 03:38:22;;;;;;;27.08;14.98;;;;;;;5.04;84.54;96103.09;5074101;28;20028;-83
2021/04/07 03:40:48;;;;;;;47.58;15.98;;;;;;;5.16;84.49;96123.53;5074453;28;20023;-84
2021/04/07 03:43:16;;;;;;;29.30;15.43;;;;;;;5.11;83.91;96129.09;5073983;28;20384;-83
2021/04/07 03:45:43;;;;;;;28.48;15.15;;;;;;;5.15;83.45;96124.47;5074558;28;20036;-83
2021/04/07 03:48:11;;;;;;;38.08;16.20;;;;;;;5.06;84.70;96117.09;5074283;28;20122;-83
2021/04/07 03:50:38;;;;;;;40.25;18.75;;;;;;;4.94;84.13;96094.88;5074047;28;20537;-83
2021/04/07 03:53:04;;;;;;;34.50;15.55;;;;;;;4.99;83.12;96118.44;5073865;28;20115;-84
2021/04/07 03:55:30;;;;;;;30.33;14.32;;;;;;;5.06;84.31;96138.28;5074172;28;20091;-83
2021/04/07 03:57:55;;;;;;;31.95;15.30;;;;;;;5.15;84.65;96143.00;5073401;28;20036;-84
2021/04/07 04:00:21;;;;;;;28.77;15.65;;;;;;;4.99;85.12;96140.47;5074529;28;20050;-83
2021/04/07 04:02:47;;;;;;;26.75;13.98;;;;;;;5.02;83.76;96147.38;5074757;28;20020;-83
2021/04/07 04:05:13;;;;;;;32.88;16.73;;;;;;;5.03;85.19;96152.59;5073711;28;20089;-84
2021/04/07 04:07:38;;;;;;;28.30;14.95;;;;;;;4.95;85.84;96161.97;5073952;28;20027;-83
2021/04/07 04:10:04;;;;;;;26.52;13.65;;;;;;;4.94;86.34;96158.47;5069888;28;20031;-83
2021/04/07 04:12:30;;;;;;;27.38;14.38;;;;;;;4.89;87.34;96161.38;5071013;28;20020;-84
2021/04/07 04:14:56;;;;;;;24.65;13.88;;;;;;;4.76;87.08;96186.94;5073283;28;20035;-83
2021/04/07 04:17:21;;;;;;;25.92;14.35;;;;;;;4.70;87.77;96184.66;5073285;28;20127;-83
2021/04/07 04:19:48;;;;;;;27.13;14.95;;;;;;;4.78;87.76;96190.34;5073113;28;20028;-83
2021/04/07 04:22:13;;;;;;;27.58;14.48;;;;;;;4.80;89.79;96217.56;5073503;28;20054;-83
2021/04/07 04:24:39;;;;;;;29.15;14.75;;;;;;;4.74;88.61;96204.69;5090732;28;20411;-84
2021/04/07 04:27:05;;;;;;;26.35;14.07;;;;;;;4.80;88.07;96222.88;5070595;28;20032;-83
2021/04/07 04:29:30;;;;;;;24.27;13.88;;;;;;;4.84;88.21;96229.69;5073375;28;20105;-83
2021/04/07 04:31:56;;;;;;;28.38;15.20;;;;;;;4.69;90.07;96212.09;5073848;28;20483;-83
2021/04/07 04:34:22;;;;;;;34.15;16.80;;;;;;;4.79;89.70;96229.13;5073450;28;20070;-83
2021/04/07 04:36:47;;;;;;;30.73;16.23;;;;;;;4.82;90.03;96234.25;5090292;28;20024;-83
2021/04/07 04:39:13;;;;;;;35.17;17.95;;;;;;;4.76;90.22;96260.25;5073434;28;20024;-83
2021/04/07 04:41:38;;;;;;;38.42;19.65;;;;;;;4.72;90.60;96256.91;5073738;28;20027;-82
2021/04/07 04:44:04;;;;;;;34.80;17.67;;;;;;;4.79;91.13;96271.50;5070264;28;20040;-82
2021/04/07 04:46:29;;;;;;;34.65;17.65;;;;;;;4.89;91.38;96290.34;5073479;28;20027;-82
2021/04/07 04:48:55;;;;;;;29.38;15.48;;;;;;;4.78;92.54;96301.56;5073715;28;20449;-82
2021/04/07 04:51:20;;;;;;;36.13;18.38;;;;;;;4.81;91.58;96284.66;5073434;28;20044;-83
2021/04/07 04:53:47;;;;;;;25.90;14.10;;;;;;;4.73;90.80;96277.16;5073455;28;20024;-83
2021/04/07 04:56:12;;;;;;;22.83;12.70;;;;;;;4.83;90.60;96325.97;5073090;28;20105;-83
2021/04/07 04:58:38;;;;;;;27.00;13.30;;;;;;;4.68;92.31;96313.66;5073495;28;20032;-83
2021/04/07 05:01:03;;;;;;;25.75;14.02;;;;;;;4.68;93.03;96305.69;5072894;28;20020;-83
2021/04/07 05:03:29;;;;;;;22.63;11.30;;;;;;;4.56;92.10;96301.13;5073158;28;20107;-83
2021/04/07 05:05:55;;;;;;;21.90;12.02;;;;;;;4.46;92.97;96294.66;5072211;28;20056;-83
2021/04/07 05:08:20;;;;;;;21.20;12.77;;;;;;;4.51;94.09;96292.59;5073217;28;20039;-83
2021/04/07 05:10:46;;;;;;;16.00;9.82;;;;;;;4.47;93.36;96276.97;5073138;28;20495;-83
2021/04/07 05:13:12;;;;;;;28.10;14.55;;;;;;;4.55;93.50;96309.16;5072908;28;20034;-82
2021/04/07 05:15:37;;;;;;;18.63;10.43;;;;;;;4.40;94.29;96287.06;5072994;28;20111;-83
2021/04/07 05:18:13;;;;;;;14.95;9.18;;;;;;;4.39;94.25;96290.69;5073575;28;20083;-84
2021/04/07 05:20:40;;;;;;;32.90;16.60;;;;;;;4.50;94.86;96305.91;5066046;28;20072;-84
2021/04/07 05:23:05;;;;;;;35.80;16.33;;;;;;;4.39;95.05;96277.44;5072513;28;20402;-83
2021/04/07 05:25:31;;;;;;;24.02;12.88;;;;;;;4.47;95.02;96301.66;5073346;28;20024;-84
2021/04/07 05:27:57;;;;;;;22.67;11.27;;;;;;;4.42;95.68;96306.38;5073258;28;20028;-83
2021/04/07 05:30:23;;;;;;;39.20;19.88;;;;;;;4.31;96.20;96316.72;5072979;28;20036;-85
2021/04/07 05:32:48;;;;;;;32.13;16.63;;;;;;;4.25;96.63;96301.19;5073150;28;20028;-83
2021/04/07 05:35:14;;;;;;;35.95;17.23;;;;;;;4.23;96.97;96306.56;5090177;28;20074;-83
2021/04/07 05:37:39;;;;;;;54.22;26.48;;;;;;;4.25;97.31;96332.94;5072951;28;20107;-85
2021/04/07 05:40:06;;;;;;;10.88;7.90;;;;;;;4.19;98.86;96333.28;5094514;28;20050;-83
2021/04/07 05:42:31;;;;;;;8.77;4.47;;;;;;;4.22;98.88;96348.97;5079064;28;20023;-83
2021/04/07 05:44:57;;;;;;;1.75;1.65;;;;;;;4.23;99.56;96353.34;5093252;28;20016;-83
2021/04/07 05:47:23;;;;;;;2.33;2.10;;;;;;;4.09;99.52;96338.22;5076102;28;20024;-83
2021/04/07 05:49:49;;;;;;;0.80;0.80;;;;;;;4.06;98.79;96325.19;5076285;28;20499;-83
2021/04/07 05:52:14;;;;;;;1.48;1.10;;;;;;;4.06;99.17;96329.63;5076487;28;20128;-83
2021/04/07 05:54:40;;;;;;;2.45;1.73;;;;;;;4.06;99.40;96327.00;5090416;28;20392;-83
2021/04/07 05:57:05;;;;;;;1.55;1.45;;;;;;;4.14;99.77;96336.19;5073943;28;20044;-83
2021/04/07 05:59:31;;;;;;;4.53;2.15;;;;;;;4.32;98.25;96350.19;5093866;28;20035;-83
2021/04/07 06:01:57;;;;;;;2.42;1.20;;;;;;;4.20;99.47;96345.59;5093578;28;20031;-76
2021/04/07 06:04:22;;;;;;;4.93;3.17;;;;;;;4.29;99.98;96367.09;5076147;28;20115;-74
2021/04/07 06:06:48;;;;;;;5.93;3.95;;;;;;;4.21;97.86;96382.56;5093128;28;20059;-84
2021/04/07 06:09:13;;;;;;;2.03;1.92;;;;;;;4.19;96.83;96391.50;5074849;28;20032;-84
2021/04/07 06:11:39;;;;;;;1.83;1.38;;;;;;;4.10;98.76;96398.16;5075999;28;20483;-84
2021/04/07 06:14:04;;;;;;;0.70;0.70;;;;;;;4.01;100.00;96387.22;5093062;28;20510;-83
2021/04/07 06:16:30;;;;;;;0.80;0.60;;;;;;;4.00;100.00;96390.81;5075744;28;20035;-84
2021/04/07 06:18:56;;;;;;;1.55;1.45;;;;;;;4.10;100.00;96394.66;5093392;28;20112;-77
2021/04/07 06:21:21;;;;;;;1.90;1.70;;;;;;;3.86;100.00;96388.06;5076259;28;20035;-83
2021/04/07 06:23:47;;;;;;;1.00;1.00;;;;;;;3.83;100.00;96366.13;5093811;28;20039;-83
2021/04/07 06:26:12;;;;;;;1.20;1.15;;;;;;;3.79;100.00;96382.25;5079680;28;20024;-82
2021/04/07 06:28:38;;;;;;;1.92;1.83;;;;;;;3.83;100.00;96384.66;5074902;28;20028;-84
2021/04/07 06:31:03;;;;;;;2.17;1.02;;;;;;;3.72;100.00;96389.66;5093517;28;20020;-85
2021/04/07 06:33:31;;;;;;;2.63;2.03;;;;;;;3.73;100.00;96403.72;5075812;28;20031;-84
2021/04/07 06:36:04;;;;;;;1.13;1.05;;;;;;;3.55;100.00;96408.19;5070189;28;20427;-74
2021/04/07 06:38:30;;;;;;;4.22;1.20;;;;;;;3.39;100.00;96415.22;5087886;28;20032;-74
2021/04/07 06:40:57;;;;;;;1.30;1.20;;;;;;;3.29;100.00;96427.22;5093178;28;20028;-85
2021/04/07 06:43:24;;;;;;;1.50;1.25;;;;;;;3.38;100.00;96434.66;5068327;28;20036;-84
2021/04/07 06:45:50;;;;;;;1.27;0.98;;;;;;;3.50;100.00;96454.31;5075566;28;20115;-84
2021/04/07 06:48:16;;;;;;;2.05;1.85;;;;;;;3.38;100.00;96458.44;5075376;28;20515;-78
2021/04/07 06:50:44;;;;;;;0.93;0.85;;;;;;;3.41;100.00;96466.22;5074628;28;20499;-84
2021/04/07 06:53:13;;;;;;;3.13;1.40;;;;;;;3.45;100.00;96477.47;5074970;28;20457;-75
2021/04/07 06:55:39;;;;;;;3.83;1.38;;;;;;;3.51;100.00;96472.72;5075344;28;20032;-84
2021/04/07 06:58:07;;;;;;;1.90;1.25;;;;;;;3.58;100.00;96481.19;5074035;28;20125;-76
2021/04/07 07:00:37;;;;;;;3.25;1.55;;;;;;;3.64;100.00;96460.59;5073277;28;20048;-83
2021/04/07 07:03:05;;;;;;;2.80;2.00;;;;;;;3.73;100.00;96468.03;5090603;28;20115;-83
2021/04/07 07:05:32;;;;;;;0.90;0.90;;;;;;;3.65;100.00;96470.25;5072969;28;20036;-86
2021/04/07 07:08:09;;;;;;;3.35;2.10;;;;;;;3.49;100.00;96485.19;5073294;28;20438;-84
2021/04/07 07:10:40;;;;;;;2.20;1.38;;;;;;;3.60;100.00;96477.53;5073700;28;20421;-83
2021/04/07 07:13:11;;;;;;;0.65;0.65;;;;;;;3.40;100.00;96471.56;5073650;28;20042;-84
2021/04/07 07:15:38;;;;;;;1.98;1.85;;;;;;;3.37;100.00;96506.94;5073422;28;20028;-83
2021/04/07 07:18:04;;;;;;;0.50;0.50;;;;;;;3.39;100.00;96499.78;5090352;28;20070;-83
2021/04/07 07:20:33;;;;;;;0.43;0.38;;;;;;;3.31;100.00;96491.41;5073663;28;20052;-82
2021/04/07 07:22:59;;;;;;;0.60;0.60;;;;;;;3.25;100.00;96491.72;5090198;28;20020;-83
2021/04/07 07:25:26;;;;;;;0.50;0.50;;;;;;;3.26;100.00;96509.28;5072767;28;20085;-82
2021/04/07 07:28:03;;;;;;;0.50;0.50;;;;;;;3.26;100.00;96519.84;5073173;28;20020;-81
2021/04/07 07:30:41;;;;;;;3.28;0.88;;;;;;;3.36;100.00;96520.22;5091523;28;20026;-77
2021/04/07 07:33:20;;;;;;;0.45;0.43;;;;;;;3.39;100.00;96514.78;5075049;28;20115;-76
2021/04/07 07:36:06;;;;;;;0.45;0.45;;;;;;;3.30;100.00;96505.53;5092032;28;20028;-76
2021/04/07 07:38:33;;;;;;;0.45;0.45;;;;;;;3.22;100.00;96520.91;5074780;28;20019;-76
2021/04/07 07:41:08;;;;;;;0.15;0.15;;;;;;;3.09;100.00;96511.88;5090808;28;20483;-83
2021/04/07 07:43:35;;;;;;;0.30;0.30;;;;;;;3.28;100.00;96528.53;5071038;28;20043;-86
2021/04/07 07:46:16;;;;;;;1.58;1.25;;;;;;;3.46;100.00;96532.91;5074790;28;20050;-82
2021/04/07 07:48:45;;;;;;;0.10;0.10;;;;;;;3.21;100.00;96496.28;5073862;28;20391;-84
2021/04/07 07:51:22;;;;;;;0.82;0.82;;;;;;;3.18;100.00;96490.28;5053111;28;20033;-87
2021/04/07 07:53:52;;;;;;;0.40;0.40;;;;;;;3.14;100.00;96483.44;5086524;28;20571;-87
2021/04/07 07:56:20;;;;;;;0.40;0.40;;;;;;;3.52;100.00;96537.88;5073763;28;20518;-83
2021/04/07 07:58:48;;;;;;;2.17;1.48;;;;;;;3.52;100.00;96535.25;5092031;28;20471;-76
2021/04/07 08:01:15;;;;;;;0.40;0.40;;;;;;;3.59;99.57;96544.59;5093473;28;20027;-76
2021/04/07 08:03:49;;;;;;;1.15;1.08;;;;;;;3.67;99.49;96537.09;5091694;28;20028;-81
2021/04/07 08:06:15;;;;;;;0.80;0.77;;;;;;;3.80;98.65;96547.91;5074206;28;20039;-83
2021/04/07 08:08:44;;;;;;;0.98;0.98;;;;;;;3.87;97.49;96522.00;5073639;28;20490;-82
2021/04/07 08:11:10;;;;;;;1.23;1.15;;;;;;;4.02;96.75;96534.44;5073311;28;20024;-75
2021/04/07 08:13:38;;;;;;;0.10;0.10;;;;;;;4.10;97.44;96535.72;5091146;28;20123;-84
2021/04/07 08:16:05;;;;;;;0.80;0.75;;;;;;;4.31;97.27;96545.16;5091490;28;20483;-84
2021/04/07 08:18:31;;;;;;;0.93;0.90;;;;;;;4.39;97.75;96544.78;5074540;28;20035;-84
2021/04/07 08:20:57;;;;;;;0.60;0.57;;;;;;;4.73;95.96;96560.56;5074115;28;20032;-88
2021/04/07 08:23:24;;;;;;;3.28;2.97;;;;;;;4.85;92.82;96528.09;5074693;28;20392;-88
2021/04/07 08:25:55;;;;;;;1.85;1.75;;;;;;;5.01;92.01;96567.81;5071623;28;20419;-79
2021/04/07 08:28:23;;;;;;;2.42;1.70;;;;;;;5.28;89.66;96571.56;5073154;28;20020;-77
2021/04/07 08:30:50;;;;;;;2.00;1.20;;;;;;;5.17;90.72;96578.44;5072016;28;20028;-82
2021/04/07 08:33:20;;;;;;;0.77;0.77;;;;;;;5.09;90.29;96596.53;5071686;28;20481;-81
2021/04/07 08:36:23;;;;;;;1.63;1.27;;;;;;;4.75;92.89;96550.72;5070742;28;20118;-81
2021/04/07 08:38:47;;;;;;;3.85;1.85;;;;;;;4.93;92.36;96572.69;5087905;28;20131;-81
2021/04/07 08:41:38;;;;;;;1.70;1.60;;;;;;;4.88;94.63;96554.41;5088273;28;20115;-76
2021/04/07 08:44:04;;;;;;;1.65;1.55;;;;;;;4.89;94.34;96590.53;5089650;28;20105;-75
2021/04/07 08:46:44;;;;;;;2.15;1.95;;;;;;;4.92;91.57;96579.75;5074031;28;20434;-77
2021/04/07 08:49:32;;;;;;;1.42;1.13;;;;;;;4.89;92.24;96603.78;5090500;28;20463;-76
2021/04/07 08:51:57;;;;;;;0.30;0.30;;;;;;;4.79;91.17;96605.25;5091859;28;21318;-76
2021/04/07 08:54:23;;;;;;;1.77;1.58;;;;;;;4.46;91.90;96596.44;5073915;28;20036;-75
2021/04/07 08:56:54;;;;;;;2.25;1.77;;;;;;;4.52;93.90;96596.13;5090214;28;20044;-75
2021/04/07 08:59:22;;;;;;;4.13;2.45;;;;;;;4.65;93.97;96602.47;5090927;28;20032;-78
2021/04/07 09:01:48;;;;;;;3.88;1.25;;;;;;;4.70;92.93;96608.38;5073144;28;20032;-84
2021/04/07 09:04:15;;;;;;;2.03;1.25;;;;;;;4.72;92.87;96598.56;5072666;28;20036;-74
2021/04/07 09:06:57;;;;;;;1.88;1.48;;;;;;;4.86;93.76;96596.00;5073189;28;20449;-74
2021/04/07 09:09:23;;;;;;;1.58;0.80;;;;;;;5.00;91.03;96586.44;5090460;28;20495;-74
2021/04/07 09:11:50;;;;;;;3.30;2.58;;;;;;;5.05;90.96;96584.38;5072748;28;20120;-74
2021/04/07 09:14:16;;;;;;;0.30;0.30;;;;;;;5.17;89.50;96607.59;5094362;28;20028;-74
2021/04/07 09:16:43;;;;;;;8.38;6.55;;;;;;;5.26;90.56;96626.44;5077491;28;20100;-75
2021/04/07 09:19:22;;;;;;;3.33;1.88;;;;;;;5.08;90.02;96640.72;5094297;28;20407;-75
2021/04/07 09:22:07;;;;;;;1.10;0.68;;;;;;;4.89;92.84;96646.16;5077192;28;20027;-74
2021/04/07 09:24:42;;;;;;;1.42;1.33;;;;;;;4.73;94.11;96647.94;5094117;28;20509;-73
2021/04/07 09:27:21;;;;;;;3.88;2.63;;;;;;;4.75;94.25;96656.66;5077156;28;20426;-74
2021/04/07 09:29:47;;;;;;;4.38;1.13;;;;;;;4.87;94.08;96650.69;5076733;28;20088;-73
2021/04/07 09:32:17;;;;;;;0.70;0.70;;;;;;;4.84;93.24;96650.88;5076558;28;20488;-73
2021/04/07 09:34:43;;;;;;;5.28;0.70;;;;;;;4.80;92.27;96637.84;5093493;28;20506;-73
2021/04/07 09:37:10;;;;;;;1.20;1.10;;;;;;;4.96;91.90;96662.59;5076430;28;20120;-73
2021/04/07 09:39:37;;;;;;;0.82;0.82;;;;;;;5.04;91.21;96655.09;5076511;28;20484;-73
2021/04/07 09:42:14;;;;;;;4.00;2.60;;;;;;;5.06;92.85;96641.75;5093383;28;20031;-82
2021/04/07 09:44:40;;;;;;;0.98;0.98;;;;;;;5.11;91.80;96656.44;5075766;28;20392;-73
2021/04/07 09:47:06;;;;;;;4.05;1.65;;;;;;;5.16;91.58;96661.50;5092889;28;20124;-73
2021/04/07 09:49:33;;;;;;;1.25;1.15;;;;;;;5.19;91.15;96650.75;5092845;28;20111;-73
2021/04/07 09:51:59;;;;;;;1.00;0.95;;;;;;;4.97;91.22;96621.06;5092904;28;20534;-72
2021/04/07 09:54:27;;;;;;;5.55;2.90;;;;;;;4.97;94.22;96639.59;5093192;28;20165;-73
2021/04/07 09:57:00;;;;;;;5.03;1.30;;;;;;;4.86;91.37;96648.16;5076375;28;20036;-73
2021/04/07 09:59:36;;;;;;;1.45;1.35;;;;;;;4.85;92.64;96643.78;5094541;28;20027;-73
2021/04/07 10:02:04;;;;;;;1.13;1.02;;;;;;;4.82;92.36;96654.53;5092487;28;20039;-74
2021/04/07 10:04:31;;;;;;;3.88;2.67;;;;;;;4.80;91.25;96653.75;5074596;28;20507;-80
2021/04/07 10:07:09;;;;;;;8.02;4.72;;;;;;;4.70;91.82;96669.31;5090648;28;20024;-77
2021/04/07 10:09:34;;;;;;;8.60;5.60;;;;;;;4.61;92.59;96653.03;5092156;28;20510;-84
2021/04/07 10:12:00;;;;;;;7.00;3.47;;;;;;;4.72;94.41;96672.72;5093936;28;20024;-80
2021/04/07 10:14:26;;;;;;;3.20;2.83;;;;;;;4.59;93.96;96661.03;5091906;28;20032;-74
2021/04/07 10:16:52;;;;;;;2.72;2.03;;;;;;;4.52;93.90;96670.28;5092035;28;20032;-74
2021/04/07 10:19:17;;;;;;;1.90;1.55;;;;;;;4.45;95.70;96663.56;5091938;28;20078;-73
2021/04/07 10:21:44;;;;;;;3.38;1.27;;;;;;;4.38;94.27;96686.00;5090516;28;20130;-73
2021/04/07 10:24:14;;;;;;;2.90;2.25;;;;;;;4.29;94.67;96687.31;5090674;28;20016;-74
2021/04/07 10:26:43;;;;;;;0.85;0.85;;;;;;;4.17;93.73;96681.81;5073772;28;20039;-73
2021/04/07 10:29:23;;;;;;;4.72;2.15;;;;;;;3.96;94.43;96690.81;5074621;28;20027;-72
2021/04/07 10:31:58;;;;;;;6.70;3.03;;;;;;;3.89;95.14;96702.63;5091710;28;20024;-73
2021/04/07 10:34:31;;;;;;;1.95;1.38;;;;;;;3.97;94.98;96711.06;5074701;28;20156;-74
2021/04/07 10:36:58;;;;;;;2.22;1.50;;;;;;;4.11;96.74;96713.84;5066563;28;20043;-74
2021/04/07 10:39:23;;;;;;;1.38;1.27;;;;;;;4.04;97.92;96729.19;5091374;28;20423;-73
2021/04/07 10:41:51;;;;;;;1.38;1.27;;;;;;;4.05;96.81;96732.69;5091140;28;20043;-73
2021/04/07 10:44:26;;;;;;;0.88;0.85;;;;;;;3.90;96.32;96763.41;5074140;28;20028;-72
2021/04/07 10:46:52;;;;;;;2.97;1.90;;;;;;;3.73;97.10;96752.75;5090633;28;20028;-73
2021/04/07 10:49:19;;;;;;;6.43;4.00;;;;;;;3.77;98.18;96756.97;5090407;28;20032;-83
2021/04/07 10:51:44;;;;;;;14.00;1.77;;;;;;;3.92;99.18;96743.00;5074473;28;20136;-73
2021/04/07 10:54:10;;;;;;;6.72;5.45;;;;;;;4.29;99.40;96737.63;5089825;28;20053;-81
2021/04/07 10:56:37;;;;;;;7.15;5.50;;;;;;;4.61;96.96;96736.00;5071554;28;20055;-81
2021/04/07 10:59:05;;;;;;;6.63;4.10;;;;;;;4.98;93.22;96734.06;5081058;28;20268;-81
2021/04/07 11:01:33;;;;;;;2.40;2.20;;;;;;;5.30;92.15;96727.88;5107846;28;20024;-81
2021/04/07 11:04:15;;;;;;;10.50;4.15;;;;;;;5.40;91.39;96727.31;5090266;28;20058;-82
2021/04/07 11:06:41;;;;;;;3.72;2.25;;;;;;;5.55;90.94;96744.16;5085181;28;20106;-81
2021/04/07 11:09:07;;;;;;;3.55;2.65;;;;;;;5.69;88.61;96740.75;5091466;28;20111;-82
2021/04/07 11:11:34;;;;;;;4.40;2.75;;;;;;;5.81;89.09;96730.31;5074540;28;20483;-83
2021/04/07 11:14:00;;;;;;;3.97;2.60;;;;;;;5.87;88.36;96730.00;5075029;28;20020;-83
2021/04/07 11:16:33;;;;;;;0.85;0.85;;;;;;;6.13;87.71;96752.41;5090772;28;20032;-74
2021/04/07 11:18:58;;;;;;;2.78;1.38;;;;;;;6.38;84.65;96765.13;5072584;28;20096;-84
2021/04/07 11:21:24;;;;;;;4.40;2.35;;;;;;;6.90;86.00;96737.19;5089875;28;20467;-74
2021/04/07 11:23:50;;;;;;;3.85;1.67;;;;;;;7.39;85.17;96742.13;5074152;28;20024;-73
2021/04/07 11:26:16;;;;;;;1.60;1.33;;;;;;;8.33;80.98;96746.75;5089746;28;20052;-81
2021/04/07 11:28:42;;;;;;;3.20;2.05;;;;;;;8.85;72.25;96747.63;5072595;28;20032;-81
2021/04/07 11:31:13;;;;;;;2.35;1.02;;;;;;;8.86;73.04;96753.84;5071986;28;20024;-81
2021/04/07 11:33:54;;;;;;;1.33;1.10;;;;;;;8.74;76.47;96747.50;5075303;28;20035;-80
2021/04/07 11:36:27;;;;;;;1.63;1.52;;;;;;;8.88;71.86;96742.09;5090094;28;20039;-81